createdAt,value
2022-12-15T04:32:51.364Z,1.8
2022-12-15T04:37:53.366Z,1.8
2022-12-15T04:42:55.196Z,0
2022-12-15T04:47:56.986Z,0
2022-12-15T04:58:05.376Z,0
2022-12-15T05:03:07.667Z,1.36
2022-12-15T05:08:09.441Z,1.36
2022-12-15T05:13:11.441Z,0
2022-12-15T05:18:13.328Z,0
2022-12-15T05:23:15.128Z,0
2022-12-15T05:28:16.910Z,0
2022-12-15T05:33:18.727Z,0
2022-12-15T05:38:20.504Z,2.38
2022-12-15T05:48:28.066Z,2.55
2022-12-15T05:53:32.318Z,2.55
2022-12-15T05:58:35.213Z,2.73
2022-12-15T06:03:38.344Z,2.73
2022-12-15T06:08:41.458Z,0
2022-12-15T06:13:43.605Z,0
2022-12-15T06:18:51.064Z,0
2022-12-15T06:23:53.312Z,1.83
2022-12-15T06:28:56.072Z,1.83
2022-12-15T06:34:03.391Z,2.12
2022-12-15T06:39:06.381Z,2.12
2022-12-15T06:44:08.192Z,0.74
2022-12-15T06:49:10.046Z,0.74
2022-12-15T06:54:11.969Z,0
2022-12-15T06:59:13.726Z,0
2022-12-15T07:04:16.341Z,0
2022-12-15T07:09:18.192Z,0
2022-12-15T07:14:19.995Z,0
2022-12-15T07:19:21.902Z,0
2022-12-15T07:24:23.902Z,0
2022-12-15T07:29:25.926Z,0
2022-12-15T07:34:27.712Z,0
2022-12-15T07:39:29.749Z,2.41
2022-12-15T07:44:31.563Z,2.41
2022-12-15T07:49:33.614Z,2.43
2022-12-15T07:54:35.486Z,2.43
2022-12-15T07:59:37.444Z,1.12
2022-12-15T08:04:39.324Z,2
2022-12-15T08:09:41.053Z,2
2022-12-15T08:14:42.995Z,0.27
2022-12-15T08:19:44.803Z,0.27
2022-12-15T08:24:46.579Z,2.48
2022-12-15T08:29:53.703Z,2.48
2022-12-15T08:34:55.689Z,1.36
2022-12-15T08:39:57.493Z,1.36
2022-12-15T08:44:59.295Z,2.36
2022-12-15T08:50:01.163Z,2.36
2022-12-15T08:55:03.067Z,2.98
2022-12-15T09:00:05.207Z,4.59
2022-12-15T09:05:07.523Z,4.59
2022-12-15T09:10:09.658Z,2.98
2022-12-15T09:15:11.525Z,2.98
2022-12-15T09:25:19.263Z,3.01
2022-12-15T09:30:21.014Z,1.42
2022-12-15T09:35:22.891Z,1.42
2022-12-15T09:40:25.279Z,2.57
2022-12-15T09:45:30.929Z,2.57
2022-12-15T09:50:34.274Z,2.64
2022-12-15T09:55:36.133Z,0.48
2022-12-15T10:00:50.653Z,0.48
2022-12-15T10:11:05.364Z,1.52
2022-12-15T10:21:14.247Z,2.72
2022-12-15T10:26:18.188Z,4.59
2022-12-15T10:31:25.561Z,4.59
2022-12-15T10:36:27.341Z,4.7
2022-12-15T10:41:31.736Z,5.13
2022-12-15T10:46:34.152Z,5.13
2022-12-15T10:51:37.622Z,3.36
2022-12-15T11:01:45.315Z,1.28
2022-12-15T11:11:55.615Z,0.75
2022-12-15T11:16:58.697Z,0.75
2022-12-15T11:22:03.682Z,1.88
2022-12-15T11:27:11.343Z,1.88
2022-12-15T11:32:13.873Z,1.13
2022-12-15T11:47:36.114Z,0
2022-12-15T11:52:45.796Z,0
2022-12-15T12:03:04.867Z,0.25
2022-12-15T12:18:22.926Z,1.14
2022-12-15T12:23:27.895Z,1.52
2022-12-15T12:28:35.325Z,1.52
2022-12-15T12:33:40.564Z,1.79
2022-12-15T12:38:43.950Z,1.79
2022-12-15T12:43:51.662Z,0.91
2022-12-15T12:48:55.531Z,0.91
2022-12-15T12:53:59.222Z,1.06
2022-12-15T12:59:01.945Z,1.06
2022-12-15T13:04:06.060Z,2.48
2022-12-15T13:24:31.945Z,1.14
2022-12-15T13:29:34.095Z,2.09
2022-12-15T13:34:37.137Z,2.09
2022-12-15T13:44:49.373Z,0
2022-12-15T13:55:03.501Z,2.99
2022-12-15T14:00:06.941Z,2.99
2022-12-15T14:05:13.468Z,1.07
2022-12-15T14:10:17.589Z,1.07
2022-12-15T14:15:22.468Z,2.15
2022-12-15T14:20:26.057Z,2.15
2022-12-15T14:25:28.826Z,1.54
2022-12-15T14:30:31.284Z,1.54
2022-12-15T14:35:36.961Z,3.46
2022-12-15T14:40:39.913Z,3.46
2022-12-15T14:45:42.025Z,1.28
2022-12-15T14:50:45.763Z,3.28
2022-12-15T14:55:47.594Z,3.28
2022-12-15T15:00:52.237Z,1.93
2022-12-15T15:05:57.787Z,1.93
2022-12-15T15:11:01.912Z,3.23
2022-12-15T15:16:05.838Z,3.23
2022-12-15T15:21:07.904Z,1.54
2022-12-15T15:26:10.086Z,1.54
2022-12-15T15:36:17.396Z,4.04
2022-12-15T15:41:19.762Z,4.04
2022-12-15T15:46:23.010Z,1.71
2022-12-15T15:51:24.998Z,1.71
2022-12-15T15:56:27.114Z,2.5
2022-12-15T16:01:29.595Z,2.5
2022-12-15T16:06:31.620Z,1.83
2022-12-15T16:11:33.861Z,1.83
2022-12-15T16:16:36.102Z,3.58
2022-12-15T16:21:39.314Z,3.58
2022-12-15T16:26:42.989Z,1.07
2022-12-15T16:31:45.140Z,1.76
2022-12-15T16:36:47.347Z,1.76
2022-12-15T16:41:49.269Z,0
2022-12-15T16:46:51.586Z,0
2022-12-15T16:51:53.765Z,0
2022-12-15T16:56:56.771Z,0
2022-12-15T17:02:00.358Z,1.28
2022-12-15T17:07:02.448Z,1.28
2022-12-15T17:12:04.580Z,3.3
2022-12-15T17:17:09.416Z,3.3
2022-12-15T17:22:13.936Z,0.36
2022-12-15T17:32:22.067Z,2.31
2022-12-15T17:37:26.125Z,2.86
2022-12-15T17:42:29.242Z,2.86
2022-12-15T17:47:31.237Z,2.28
2022-12-15T17:52:33.973Z,2.28
2022-12-15T17:57:36.304Z,2.45
2022-12-15T18:02:39.597Z,2.45
2022-12-15T18:07:41.942Z,1.74
2022-12-15T18:12:44.024Z,1.21
2022-12-15T18:17:46.939Z,1.21
2022-12-15T18:22:51.624Z,1.54
2022-12-15T18:27:54.939Z,1.54
2022-12-15T18:32:59.175Z,2.42
2022-12-15T18:38:02.165Z,2.42
2022-12-15T18:43:05.834Z,1.18
2022-12-15T18:48:16.647Z,1.18
2022-12-15T18:53:21.841Z,2.61
2022-12-15T18:58:27.287Z,2.61
2022-12-15T19:03:32.214Z,2.46
2022-12-15T19:08:36.311Z,1.48
2022-12-15T19:13:39.219Z,1.48
2022-12-15T19:18:41.481Z,3.84
2022-12-15T19:23:44.047Z,3.84
2022-12-15T19:28:48.244Z,0.41
2022-12-15T19:33:51.445Z,0.41
2022-12-15T19:38:57.326Z,2.28
2022-12-15T19:44:01.186Z,2.28
2022-12-15T19:49:05.919Z,0.85
2022-12-15T19:54:13.854Z,1.92
2022-12-15T19:59:19.900Z,1.92
2022-12-15T20:04:25.565Z,0
2022-12-15T20:09:29.868Z,0
2022-12-15T20:14:32.530Z,0
2022-12-15T20:19:34.859Z,0
2022-12-15T20:24:37.218Z,0
2022-12-15T20:29:40.400Z,0
2022-12-15T20:34:43.203Z,1.34
2022-12-15T20:39:46.788Z,1.34
2022-12-15T20:44:49.142Z,2.28
2022-12-15T20:49:52.973Z,0
2022-12-15T20:54:54.901Z,0
2022-12-15T20:59:56.963Z,2.68
2022-12-15T21:04:59.362Z,2.68
2022-12-15T21:10:01.539Z,2.65
2022-12-15T21:15:06.222Z,2.65
2022-12-15T21:20:08.938Z,2.41
2022-12-15T21:25:16.526Z,2.41
2022-12-15T21:30:19.597Z,3.29
2022-12-15T21:35:21.424Z,3.29
2022-12-15T21:40:25.493Z,3.22
2022-12-15T21:45:27.344Z,2.12
2022-12-15T21:50:29.359Z,2.12
2022-12-15T21:55:31.509Z,2.12
2022-12-15T22:00:33.294Z,2.12
2022-12-15T22:05:35.195Z,2.12
2022-12-15T22:10:37.114Z,2.12
2022-12-15T22:15:38.971Z,2.12
2022-12-15T22:20:41.118Z,2.12
2022-12-15T22:25:43.467Z,2.12
2022-12-15T22:30:45.781Z,2.12
2022-12-15T22:35:48.561Z,2.12
2022-12-15T22:40:51.567Z,2.12
